Pagrindinis puslapis
METAR-TAF:

METAR-TAF

Oro uostai :

Klirvoteris, Florida, Jungtinės Amerikos Valstijos

platuma: 27-58-36N, ilguma: 082-45-31W, Aukštis: 22 m

Dabartinis oras

Ataskaita buvo paskelbta 6 minutes, ne 18:35 UTC
Vėjas 5 kt iš Šiaurės Vakarų
Temperatūra 27°C
Drėgmė 70%
Slėgis 1013 hPa
Matomumas: 16.1 km
Giedras dangus

METAR: KCLW 171835Z AUTO 31005KT 10SM CLR 27/21 A2992 RMK AO2

Laikas: 14:41 (18:41 UTC)


TAF: trūkstamas

Orai ataskaitas ir orų prognozės (METAR, TAF).

turimą stotys yra geltonos ir raudonos taškus žemėlapyje.

Perkelti pele per norėdami pamatyti stoties vardą.

Tada spustelėkite, norėdami matyti oro stebėjimo ir prognozės.

Norėdami pakeisti žemėlapį: spustelėkite ant žalios mygtukų su juodo kryžiaus žemyn,; žalią mygtuką su brūkšneliu, jei norite nutolinti; arba žalių rodyklių gretimoms žemėlapius.


METAR-TAF: